Time;durP1;ratioP1;P1;durP2;ratioP2;P2;SDS_P1;SDS_P2;PMS_P1;PMS_P2;Temp;Humidity;BMP_temperature;BMP_pressure;BME280_temperature;BME280_humidity;BME280_pressure;Samples;Min_cycle;Max_cycle;Signal;HPM_P1;HPM_P2
2022/07/06 00:02:15;;;;;;;6.80;0.90;;;;;;;14.42;71.94;102723.88;5009157;28;20030;-61
2022/07/06 00:04:40;;;;;;;2.38;0.77;;;;;;;14.40;72.04;102723.94;5009971;28;20057;-61
2022/07/06 00:07:05;;;;;;;3.00;0.90;;;;;;;14.45;72.28;102729.09;5010694;28;20429;-61
2022/07/06 00:09:31;;;;;;;2.75;0.90;;;;;;;14.49;72.10;102727.28;5022650;28;20072;-60
2022/07/06 00:11:56;;;;;;;3.15;1.15;;;;;;;14.51;71.99;102723.69;5029688;28;20041;-60
2022/07/06 00:14:21;;;;;;;3.42;1.15;;;;;;;14.55;71.98;102724.50;5028938;28;20231;-60
2022/07/06 00:16:47;;;;;;;3.42;1.17;;;;;;;14.47;72.21;102718.47;5029780;28;20028;-60
2022/07/06 00:19:12;;;;;;;1.45;0.60;;;;;;;14.47;72.10;102718.47;5013048;28;20034;-61
2022/07/06 00:21:38;;;;;;;1.10;0.73;;;;;;;14.46;72.05;102719.38;5009846;28;20112;-61
2022/07/06 00:24:03;;;;;;;2.55;1.00;;;;;;;14.45;72.10;102720.31;5008906;28;20028;-61
2022/07/06 00:26:29;;;;;;;2.72;1.05;;;;;;;14.40;72.28;102723.03;5009895;28;20026;-60
2022/07/06 00:28:54;;;;;;;2.35;0.98;;;;;;;14.40;72.10;102717.75;5010090;28;20439;-60
2022/07/06 00:31:19;;;;;;;2.03;0.80;;;;;;;14.42;72.36;102709.75;5017324;28;20091;-60
2022/07/06 00:33:45;;;;;;;3.20;0.88;;;;;;;14.40;72.47;102708.00;5029436;28;20025;-59
2022/07/06 00:36:10;;;;;;;1.55;0.93;;;;;;;14.44;72.56;102703.50;5028323;28;20104;-62
2022/07/06 00:38:36;;;;;;;3.45;1.00;;;;;;;14.48;72.90;102706.97;5029108;28;20034;-62
2022/07/06 00:41:01;;;;;;;1.95;0.90;;;;;;;14.48;72.81;102709.63;5029647;28;20133;-61
2022/07/06 00:43:26;;;;;;;5.32;1.30;;;;;;;14.42;72.67;102705.31;5025873;28;20542;-61
2022/07/06 00:45:52;;;;;;;7.50;1.20;;;;;;;14.33;73.05;102711.66;5027966;28;20112;-62
2022/07/06 00:48:17;;;;;;;1.83;0.77;;;;;;;14.35;72.85;102717.81;5028152;28;20587;-60
2022/07/06 00:50:42;;;;;;;2.05;1.10;;;;;;;14.35;73.31;102712.53;5029315;28;20026;-61
2022/07/06 00:53:08;;;;;;;4.75;1.42;;;;;;;14.35;73.55;102720.47;5028668;28;20028;-60
2022/07/06 00:55:41;;;;;;;2.63;1.10;;;;;;;14.34;73.76;102718.75;5028001;28;20049;-60
2022/07/06 00:58:08;;;;;;;4.97;1.27;;;;;;;14.36;73.72;102713.41;5028837;28;20047;-61
2022/07/06 01:00:34;;;;;;;4.25;1.35;;;;;;;14.30;73.88;102721.47;5029159;28;20028;-60
2022/07/06 01:02:59;;;;;;;2.38;1.00;;;;;;;14.24;73.79;102712.72;5028093;28;20056;-60
2022/07/06 01:05:25;;;;;;;5.20;0.98;;;;;;;14.24;73.94;102710.06;5028776;28;20820;-60
2022/07/06 01:07:51;;;;;;;1.90;1.15;;;;;;;14.21;74.26;102709.28;5009835;28;20060;-61
2022/07/06 01:10:18;;;;;;;2.05;1.02;;;;;;;14.15;74.07;102719.06;5007514;28;20038;-61
2022/07/06 01:12:45;;;;;;;1.48;0.95;;;;;;;14.06;74.18;102708.63;5008531;28;20133;-61
2022/07/06 01:15:12;;;;;;;3.05;1.00;;;;;;;14.04;74.26;102707.81;5008073;28;20060;-61
2022/07/06 01:17:41;;;;;;;2.25;1.10;;;;;;;14.02;74.35;102710.50;5008832;28;20034;-60
2022/07/06 01:20:18;;;;;;;9.70;2.08;;;;;;;14.02;74.91;102713.13;4999352;28;20481;-61
2022/07/06 01:22:45;;;;;;;3.15;1.00;;;;;;;14.05;74.93;102704.25;4988016;28;20033;-60
2022/07/06 01:25:10;;;;;;;7.00;1.10;;;;;;;14.07;74.90;102710.41;4987871;28;20038;-61
2022/07/06 01:27:38;;;;;;;4.05;1.10;;;;;;;14.09;74.84;102702.44;4993594;28;20026;-61
2022/07/06 01:30:09;;;;;;;2.67;1.10;;;;;;;14.04;74.82;102705.16;5028641;28;20025;-61
2022/07/06 01:32:35;;;;;;;2.20;0.90;;;;;;;14.07;74.84;102706.88;5027669;28;20036;-61
2022/07/06 01:35:01;;;;;;;4.53;1.17;;;;;;;14.05;74.57;102709.56;5028274;28;20021;-60
2022/07/06 01:37:26;;;;;;;3.33;0.90;;;;;;;14.01;74.84;102714.06;5027615;28;20053;-60
2022/07/06 01:39:51;;;;;;;1.67;1.17;;;;;;;14.03;75.06;102708.72;5028765;28;20080;-60
2022/07/06 01:42:17;;;;;;;4.43;1.30;;;;;;;14.06;75.08;102710.44;5027302;28;20423;-59
2022/07/06 01:44:44;;;;;;;1.17;1.00;;;;;;;13.98;75.12;102714.09;5028113;28;20423;-61
2022/07/06 01:47:09;;;;;;;3.17;1.05;;;;;;;13.92;75.19;102710.69;5025398;28;20468;-62
2022/07/06 01:49:34;;;;;;;4.80;1.02;;;;;;;13.89;75.32;102707.19;5008508;28;20037;-62
2022/07/06 01:51:59;;;;;;;4.13;1.45;;;;;;;13.86;75.82;102701.94;5007840;28;20037;-61
2022/07/06 01:54:25;;;;;;;1.50;0.95;;;;;;;13.83;75.46;102706.41;5007077;28;20030;-61
2022/07/06 01:56:50;;;;;;;2.97;0.98;;;;;;;13.75;75.78;102698.59;5008031;28;20085;-61
2022/07/06 01:59:15;;;;;;;2.58;1.02;;;;;;;13.76;75.94;102700.38;5008117;28;20029;-61
2022/07/06 02:01:41;;;;;;;2.63;1.10;;;;;;;13.79;75.96;102702.09;4993622;28;20088;-61
2022/07/06 02:04:06;;;;;;;1.48;0.93;;;;;;;13.82;76.07;102707.34;4988920;28;20026;-62
2022/07/06 02:06:31;;;;;;;4.03;0.88;;;;;;;13.78;76.13;102698.56;4987608;28;20027;-61
2022/07/06 02:08:57;;;;;;;3.53;0.77;;;;;;;13.79;75.84;102694.13;5002453;28;20091;-65
2022/07/06 02:11:23;;;;;;;2.65;0.90;;;;;;;13.77;75.84;102702.09;5007623;28;20033;-61
2022/07/06 02:13:48;;;;;;;2.20;1.00;;;;;;;13.84;75.97;102701.09;5007502;28;20029;-61
2022/07/06 02:16:13;;;;;;;1.70;0.80;;;;;;;13.89;75.81;102693.06;5007832;28;20113;-61
2022/07/06 02:18:39;;;;;;;2.20;0.82;;;;;;;13.92;75.68;102698.31;5008237;28;20030;-61
2022/07/06 02:21:05;;;;;;;2.38;0.90;;;;;;;13.96;75.34;102691.16;5016378;28;20479;-61
2022/07/06 02:23:30;;;;;;;6.65;1.20;;;;;;;13.96;75.16;102701.75;5026781;28;20422;-61
2022/07/06 02:25:55;;;;;;;4.30;1.00;;;;;;;13.99;75.32;102699.06;5026594;28;20376;-61
2022/07/06 02:28:21;;;;;;;1.77;0.55;;;;;;;13.96;75.15;102707.06;5027515;28;20026;-60
2022/07/06 02:30:46;;;;;;;2.08;1.00;;;;;;;13.93;75.56;102708.00;5027660;28;20038;-61
2022/07/06 02:33:12;;;;;;;2.03;0.75;;;;;;;13.96;75.80;102707.06;5024533;28;20033;-60
2022/07/06 02:35:41;;;;;;;3.00;1.02;;;;;;;13.91;75.45;102709.81;5008068;28;20026;-63
2022/07/06 02:38:07;;;;;;;2.72;0.90;;;;;;;13.95;75.88;102705.31;5004312;28;20500;-60
2022/07/06 02:40:32;;;;;;;2.17;1.10;;;;;;;13.93;75.56;102700.06;5007875;28;20069;-60
2022/07/06 02:42:58;;;;;;;4.50;0.98;;;;;;;13.93;75.87;102692.09;5006046;28;20040;-61
2022/07/06 02:45:23;;;;;;;3.60;0.80;;;;;;;13.92;75.63;102697.44;5014711;28;20033;-61
2022/07/06 02:47:48;;;;;;;9.93;1.17;;;;;;;13.91;75.79;102699.22;5026741;28;20057;-61
2022/07/06 02:50:14;;;;;;;4.88;1.35;;;;;;;13.88;75.97;102702.78;5025905;28;20025;-60
2022/07/06 02:52:39;;;;;;;1.70;0.88;;;;;;;13.82;76.37;102697.59;5026794;28;20022;-60
2022/07/06 02:55:05;;;;;;;3.90;0.90;;;;;;;13.75;76.61;102701.25;5027762;28;20472;-61
2022/07/06 02:57:30;;;;;;;3.05;1.10;;;;;;;13.74;76.82;102699.50;5026848;28;20042;-61
2022/07/06 02:59:55;;;;;;;1.75;0.93;;;;;;;13.76;77.38;102705.66;5025439;28;20037;-61
2022/07/06 03:02:21;;;;;;;3.20;0.90;;;;;;;13.78;77.51;102706.50;5027013;28;20025;-61
2022/07/06 03:04:46;;;;;;;2.35;0.90;;;;;;;13.82;77.24;102702.88;5025937;28;20021;-60
2022/07/06 03:07:12;;;;;;;3.10;1.20;;;;;;;13.83;77.59;102707.31;5025587;28;20021;-62
2022/07/06 03:09:37;;;;;;;3.45;1.02;;;;;;;13.92;77.32;102708.03;5030172;28;20028;-62
2022/07/06 03:12:03;;;;;;;1.52;1.10;;;;;;;13.99;76.89;102701.72;5017110;28;20125;-60
2022/07/06 03:14:28;;;;;;;3.47;1.20;;;;;;;14.11;76.48;102696.19;4990057;28;20035;-61
2022/07/06 03:16:54;;;;;;;1.92;0.82;;;;;;;14.20;76.47;102703.09;4993262;28;20103;-61
2022/07/06 03:19:19;;;;;;;3.33;0.95;;;;;;;14.25;76.01;102705.66;5011795;28;20475;-61
2022/07/06 03:21:45;;;;;;;3.50;1.00;;;;;;;14.29;76.06;102707.34;5008688;28;20030;-60
2022/07/06 03:24:10;;;;;;;4.78;0.98;;;;;;;14.22;76.04;102703.94;5009356;28;20595;-60
2022/07/06 03:26:35;;;;;;;2.15;1.00;;;;;;;14.14;76.47;102701.44;5010723;28;20457;-61
2022/07/06 03:29:01;;;;;;;3.08;1.08;;;;;;;14.19;76.20;102697.81;5021279;28;20442;-61
2022/07/06 03:31:26;;;;;;;2.15;1.00;;;;;;;14.27;76.29;102690.59;5030452;28;20025;-61
2022/07/06 03:33:52;;;;;;;1.95;0.98;;;;;;;14.30;76.12;102692.31;5029775;28;20036;-60
2022/07/06 03:36:17;;;;;;;2.97;1.30;;;;;;;14.39;75.82;102700.94;5030334;28;20048;-60
2022/07/06 03:38:43;;;;;;;2.50;1.00;;;;;;;14.44;75.56;102697.31;5029899;28;20032;-60
2022/07/06 03:41:08;;;;;;;1.92;0.90;;;;;;;14.57;75.06;102701.47;5024859;28;20022;-63
2022/07/06 03:43:33;;;;;;;3.05;0.88;;;;;;;14.66;74.76;102706.56;5022498;28;20399;-60
2022/07/06 03:45:59;;;;;;;1.30;1.00;;;;;;;14.75;74.40;102707.31;5029768;28;20029;-60
2022/07/06 03:48:24;;;;;;;3.53;1.02;;;;;;;14.83;74.12;102699.19;5029016;28;20104;-60
2022/07/06 03:50:49;;;;;;;2.10;0.98;;;;;;;14.85;74.17;102692.97;5030431;28;20029;-60
2022/07/06 03:53:15;;;;;;;2.30;1.00;;;;;;;15.00;73.71;102697.03;5029584;28;20009;-61
2022/07/06 03:55:40;;;;;;;3.10;1.00;;;;;;;15.12;72.88;102692.34;5024288;28;20050;-61
2022/07/06 03:58:06;;;;;;;2.75;1.05;;;;;;;15.22;72.42;102695.66;5010958;28;20508;-61
2022/07/06 04:00:32;;;;;;;3.35;1.10;;;;;;;15.24;72.45;102697.38;5008865;28;20034;-60
2022/07/06 04:02:57;;;;;;;2.42;0.90;;;;;;;15.21;72.58;102697.44;5010656;28;20777;-61
2022/07/06 04:05:23;;;;;;;3.65;1.08;;;;;;;15.29;72.33;102695.47;5010067;28;20038;-62
2022/07/06 04:07:48;;;;;;;1.92;1.00;;;;;;;15.39;72.20;102697.91;5009692;28;20046;-62
2022/07/06 04:10:15;;;;;;;5.03;0.90;;;;;;;15.39;72.09;102696.09;5024884;28;20029;-60
2022/07/06 04:12:44;;;;;;;2.90;1.00;;;;;;;15.44;71.87;102688.03;5009848;28;20026;-60
2022/07/06 04:15:10;;;;;;;2.25;0.90;;;;;;;15.50;71.47;102692.34;5009683;28;20029;-61
2022/07/06 04:17:53;;;;;;;2.10;0.90;;;;;;;15.59;71.32;102704.50;5012517;28;20113;-60
2022/07/06 04:20:20;;;;;;;3.08;0.73;;;;;;;15.69;70.85;102705.13;5024575;28;20083;-60
2022/07/06 04:22:46;;;;;;;3.88;1.00;;;;;;;15.72;70.82;102702.41;5026960;28;20030;-60
2022/07/06 04:25:11;;;;;;;1.65;0.90;;;;;;;15.76;70.44;102704.06;5027535;28;20502;-60
2022/07/06 04:27:36;;;;;;;1.10;0.80;;;;;;;15.78;70.36;102696.94;5003061;28;20034;-60
2022/07/06 04:30:05;;;;;;;2.72;0.90;;;;;;;15.82;70.43;102695.94;5010946;28;20120;-60
2022/07/06 04:32:31;;;;;;;1.85;0.80;;;;;;;15.92;70.03;102700.09;5013815;28;20081;-60
2022/07/06 04:34:56;;;;;;;2.40;0.88;;;;;;;15.95;70.00;102698.28;5016539;28;20962;-60
2022/07/06 04:37:22;;;;;;;4.88;1.00;;;;;;;15.96;70.02;102692.03;5018874;28;20057;-60
2022/07/06 04:39:47;;;;;;;2.97;1.20;;;;;;;16.01;69.81;102690.13;5023245;28;20028;-60
2022/07/06 04:42:12;;;;;;;4.18;1.10;;;;;;;16.08;69.35;102702.38;5026449;28;20116;-60
2022/07/06 04:44:38;;;;;;;3.90;0.85;;;;;;;16.02;69.41;102695.41;5014414;28;20492;-61
2022/07/06 04:47:03;;;;;;;3.20;0.85;;;;;;;16.09;69.23;102700.56;5028746;28;20119;-60
2022/07/06 04:49:28;;;;;;;3.63;0.95;;;;;;;16.10;69.16;102700.53;5020106;28;20030;-60
2022/07/06 04:51:54;;;;;;;3.78;0.73;;;;;;;16.20;68.58;102700.28;5017998;28;20029;-61
2022/07/06 04:54:19;;;;;;;2.50;1.02;;;;;;;16.23;68.87;102706.41;5023337;28;20021;-61
2022/07/06 04:56:46;;;;;;;2.10;0.82;;;;;;;16.26;68.87;102703.63;5019194;28;20129;-61
2022/07/06 04:59:12;;;;;;;2.40;1.00;;;;;;;16.33;68.47;102706.13;5024834;28;20069;-60
2022/07/06 05:01:37;;;;;;;0.70;0.70;;;;;;;16.39;68.32;102708.59;5012358;28;20519;-64
2022/07/06 05:04:02;;;;;;;3.92;1.33;;;;;;;16.39;68.35;102712.16;5012468;28;20022;-61
2022/07/06 05:06:28;;;;;;;2.38;0.80;;;;;;;16.36;68.15;102709.56;5007173;28;20037;-61
2022/07/06 05:08:53;;;;;;;1.85;0.90;;;;;;;16.38;68.20;102710.38;5008875;28;20022;-61
2022/07/06 05:11:18;;;;;;;3.63;0.70;;;;;;;16.27;68.93;102709.81;5007764;28;20061;-62
2022/07/06 05:13:44;;;;;;;1.48;0.77;;;;;;;16.29;68.79;102716.00;5008068;28;20068;-62
2022/07/06 05:16:09;;;;;;;2.10;0.70;;;;;;;16.26;68.98;102716.91;5008233;28;20029;-61
2022/07/06 05:18:34;;;;;;;4.22;1.17;;;;;;;16.28;69.06;102716.88;5007998;28;20018;-61
2022/07/06 05:21:00;;;;;;;2.15;0.55;;;;;;;16.28;68.89;102717.75;5007339;28;20103;-61
2022/07/06 05:23:26;;;;;;;4.50;0.73;;;;;;;16.32;68.88;102725.66;5005210;28;20526;-62
2022/07/06 05:25:52;;;;;;;2.55;0.70;;;;;;;16.31;68.47;102727.44;4990164;28;20089;-60
2022/07/06 05:28:17;;;;;;;1.40;0.63;;;;;;;16.31;68.28;102730.09;4987104;28;20030;-60
2022/07/06 05:30:42;;;;;;;1.70;0.80;;;;;;;16.35;68.28;102733.56;4986989;28;20037;-61
2022/07/06 05:33:08;;;;;;;0.90;0.60;;;;;;;16.37;68.43;102735.25;4988787;28;20058;-62
2022/07/06 05:35:33;;;;;;;3.03;0.80;;;;;;;16.35;68.62;102728.22;4988031;28;20053;-62
2022/07/06 05:37:58;;;;;;;0.68;0.57;;;;;;;16.38;68.66;102733.47;4991088;28;20041;-62
2022/07/06 05:40:23;;;;;;;3.25;0.80;;;;;;;16.39;68.86;102727.22;5007656;28;20029;-62
2022/07/06 05:42:49;;;;;;;4.13;0.82;;;;;;;16.50;68.77;102725.13;5008527;28;20390;-61
2022/07/06 05:45:14;;;;;;;0.90;0.65;;;;;;;16.52;68.81;102728.63;5007395;28;20022;-61
2022/07/06 05:50:23;;;;;;;2.25;0.55;;;;;;;16.67;68.29;102735.28;5004719;28;20510;-61
2022/07/06 05:53:03;;;;;;;2.00;0.90;;;;;;;16.75;69.17;102728.84;5006773;28;20025;-61
2022/07/06 05:55:28;;;;;;;2.35;0.70;;;;;;;16.86;68.60;102726.72;5003790;28;20104;-61
2022/07/06 05:57:54;;;;;;;1.40;0.70;;;;;;;16.95;68.65;102724.72;5007524;28;20029;-61
2022/07/06 06:00:21;;;;;;;3.83;0.93;;;;;;;17.01;68.62;102724.53;5007293;28;20037;-60
2022/07/06 06:02:46;;;;;;;3.08;0.75;;;;;;;17.06;68.54;102727.91;5009119;28;20087;-61
2022/07/06 06:05:13;;;;;;;2.33;0.70;;;;;;;17.13;68.57;102733.97;5007787;28;20029;-61
2022/07/06 06:07:38;;;;;;;2.53;0.50;;;;;;;17.20;67.05;102734.63;5005961;28;20532;-62
2022/07/06 06:10:06;;;;;;;1.92;0.70;;;;;;;17.30;65.87;102730.75;5008335;28;20026;-60
2022/07/06 06:12:32;;;;;;;1.55;0.77;;;;;;;17.43;66.25;102737.41;5007618;28;20496;-60
2022/07/06 06:14:57;;;;;;;0.75;0.60;;;;;;;17.47;65.49;102732.00;5006976;28;20044;-62
2022/07/06 06:17:23;;;;;;;5.95;0.77;;;;;;;17.43;64.66;102745.41;5007615;28;20073;-61
2022/07/06 06:19:48;;;;;;;1.30;0.40;;;;;;;17.48;64.82;102741.72;5005349;28;20056;-61
2022/07/06 06:22:14;;;;;;;2.25;0.60;;;;;;;17.62;63.23;102731.50;5006171;28;20026;-60
2022/07/06 06:24:39;;;;;;;2.78;0.55;;;;;;;17.72;63.31;102724.03;5006165;28;20052;-63
2022/07/06 06:27:04;;;;;;;0.52;0.50;;;;;;;17.78;63.02;102725.63;5007206;28;20088;-61
2022/07/06 06:29:30;;;;;;;3.38;0.75;;;;;;;17.74;62.27;102734.66;5007077;28;20541;-62
2022/07/06 06:31:55;;;;;;;1.65;0.60;;;;;;;17.97;62.31;102730.31;5006277;28;20030;-60
2022/07/06 06:34:20;;;;;;;1.55;0.63;;;;;;;17.90;61.33;102735.00;5006532;28;20030;-61
2022/07/06 06:36:46;;;;;;;2.15;0.57;;;;;;;17.94;60.37;102745.50;5005888;28;20037;-61
2022/07/06 06:39:11;;;;;;;0.52;0.40;;;;;;;18.06;60.35;102741.53;5002021;28;20033;-62
2022/07/06 06:41:36;;;;;;;3.35;0.55;;;;;;;17.99;60.73;102734.66;5007911;28;20024;-61
2022/07/06 06:44:02;;;;;;;2.13;0.52;;;;;;;18.11;60.22;102738.72;5002752;28;20488;-60
2022/07/06 06:46:27;;;;;;;2.47;0.50;;;;;;;18.09;59.62;102739.69;4994847;28;20585;-60
2022/07/06 06:48:52;;;;;;;1.27;0.50;;;;;;;18.08;59.96;102738.81;4996681;28;20447;-60
2022/07/06 06:51:18;;;;;;;2.28;0.55;;;;;;;18.24;59.66;102739.16;4996180;28;20485;-60
2022/07/06 06:53:43;;;;;;;6.55;0.60;;;;;;;18.30;58.54;102732.72;4996006;28;20113;-60
2022/07/06 06:56:08;;;;;;;2.50;0.80;;;;;;;18.41;59.24;102751.88;4996445;28;20049;-61
2022/07/06 06:58:34;;;;;;;2.50;0.63;;;;;;;18.48;57.31;102741.84;4995414;28;20061;-61
2022/07/06 07:00:59;;;;;;;1.35;0.43;;;;;;;18.59;56.32;102741.44;4996630;28;20032;-61
2022/07/06 07:03:25;;;;;;;1.55;0.57;;;;;;;18.69;56.73;102736.63;4996076;28;20389;-61
2022/07/06 07:05:50;;;;;;;1.10;0.65;;;;;;;18.71;55.87;102739.22;4997961;28;20096;-60
2022/07/06 07:08:15;;;;;;;2.60;0.50;;;;;;;18.81;56.34;102738.81;5009760;28;20038;-60
2022/07/06 07:10:41;;;;;;;0.50;0.47;;;;;;;18.79;56.31;102746.00;5009290;28;20494;-62
2022/07/06 07:13:06;;;;;;;1.63;0.43;;;;;;;18.71;55.79;102737.44;5009023;28;20524;-61
2022/07/06 07:15:32;;;;;;;2.00;0.50;;;;;;;18.70;55.45;102741.06;5010825;28;20040;-61
2022/07/06 07:17:57;;;;;;;2.63;0.50;;;;;;;18.84;54.04;102745.00;5010759;28;20036;-61
2022/07/06 07:20:22;;;;;;;1.38;0.40;;;;;;;19.08;52.18;102732.47;5007637;28;20037;-62
2022/07/06 07:22:48;;;;;;;0.28;0.28;;;;;;;19.16;52.41;102741.06;5002614;28;20018;-61
2022/07/06 07:25:13;;;;;;;3.40;0.70;;;;;;;19.18;51.01;102743.69;5008959;28;20431;-61
2022/07/06 07:27:38;;;;;;;1.50;0.60;;;;;;;19.19;51.74;102734.72;5006528;28;20567;-62
2022/07/06 07:30:04;;;;;;;0.35;0.30;;;;;;;19.29;51.12;102732.53;4998187;28;20053;-62
2022/07/06 07:32:30;;;;;;;1.98;0.65;;;;;;;19.31;50.38;102730.69;5009239;28;20037;-62
2022/07/06 07:34:55;;;;;;;0.38;0.38;;;;;;;19.41;51.45;102737.38;5009135;28;20022;-62
2022/07/06 07:37:20;;;;;;;2.63;0.50;;;;;;;19.67;50.54;102734.56;5009081;28;20068;-61
2022/07/06 07:39:46;;;;;;;0.85;0.63;;;;;;;19.61;50.09;102740.16;5008384;28;20041;-61
2022/07/06 07:42:11;;;;;;;3.13;0.50;;;;;;;19.66;49.87;102724.81;5026622;28;20037;-61
2022/07/06 07:44:38;;;;;;;2.55;0.65;;;;;;;19.73;48.95;102731.63;5018603;28;20029;-60
2022/07/06 07:47:04;;;;;;;1.00;0.55;;;;;;;19.95;48.55;102736.03;5009424;28;20096;-60
2022/07/06 07:49:29;;;;;;;1.35;0.70;;;;;;;20.06;48.32;102732.91;5021839;28;20491;-60
2022/07/06 07:51:54;;;;;;;2.45;0.45;;;;;;;20.11;48.48;102730.03;5018221;28;20105;-60
2022/07/06 07:54:20;;;;;;;1.45;0.50;;;;;;;20.19;47.73;102728.75;5006561;28;20109;-59
2022/07/06 07:56:45;;;;;;;3.47;0.47;;;;;;;20.32;47.77;102728.22;5013253;28;20067;-60
2022/07/06 07:59:11;;;;;;;0.75;0.47;;;;;;;20.40;48.02;102730.50;5009269;28;20088;-59
2022/07/06 08:01:36;;;;;;;3.55;0.70;;;;;;;20.48;48.17;102725.69;5006779;28;20396;-60
2022/07/06 08:04:02;;;;;;;1.15;0.55;;;;;;;20.52;46.70;102719.25;5007851;28;20110;-60
2022/07/06 08:06:27;;;;;;;0.32;0.30;;;;;;;20.72;45.98;102720.13;5007120;28;20038;-61
2022/07/06 08:08:52;;;;;;;1.10;0.40;;;;;;;20.68;46.44;102724.75;5000635;28;20129;-61
2022/07/06 08:11:18;;;;;;;3.60;0.60;;;;;;;20.68;44.42;102715.88;4999028;28;20112;-60
2022/07/06 08:13:43;;;;;;;1.80;0.40;;;;;;;20.82;45.43;102723.22;5001064;28;20635;-61
2022/07/06 08:16:09;;;;;;;1.65;0.43;;;;;;;21.00;45.95;102709.91;5003601;28;20030;-61
2022/07/06 08:18:35;;;;;;;1.33;0.40;;;;;;;21.21;44.87;102716.03;4989214;28;20030;-61
2022/07/06 08:21:01;;;;;;;1.27;0.55;;;;;;;21.54;44.60;102719.78;5001060;28;20496;-61
2022/07/06 08:23:26;;;;;;;2.72;0.60;;;;;;;21.62;41.60;102717.56;5007225;28;20026;-61
2022/07/06 08:25:52;;;;;;;0.90;0.40;;;;;;;21.93;41.76;102713.31;5007199;28;20100;-61
2022/07/06 08:28:17;;;;;;;1.85;0.30;;;;;;;22.18;41.94;102716.50;5017842;28;20114;-60
2022/07/06 08:30:42;;;;;;;0.30;0.30;;;;;;;22.39;40.74;102714.47;5007275;28;20124;-61
2022/07/06 08:33:07;;;;;;;2.10;0.30;;;;;;;22.59;37.75;102720.59;5006832;28;20037;-61
2022/07/06 08:35:33;;;;;;;2.63;0.45;;;;;;;22.69;37.57;102704.81;5008166;28;20022;-61
2022/07/06 08:37:58;;;;;;;0.98;0.32;;;;;;;22.71;37.67;102717.22;5006547;28;20049;-60
2022/07/06 08:40:24;;;;;;;2.28;0.70;;;;;;;22.71;36.34;102703.78;5006348;28;20120;-60
2022/07/06 08:42:53;;;;;;;1.30;0.50;;;;;;;22.79;37.10;102705.19;5009316;28;20026;-62
2022/07/06 08:45:19;;;;;;;0.25;0.20;;;;;;;22.87;36.91;102710.97;5006689;28;20022;-61
2022/07/06 08:47:49;;;;;;;2.25;0.50;;;;;;;22.79;36.44;102715.94;4990984;28;20033;-60
2022/07/06 08:50:14;;;;;;;0.90;0.43;;;;;;;22.72;36.04;102705.53;4999074;28;20083;-60
2022/07/06 08:52:40;;;;;;;1.50;0.30;;;;;;;22.56;36.36;102710.88;4997235;28;20038;-60
2022/07/06 08:55:05;;;;;;;1.85;0.40;;;;;;;22.57;36.29;102709.03;4993829;28;20114;-62
2022/07/06 08:57:31;;;;;;;0.80;0.50;;;;;;;22.41;36.49;102706.31;5006493;28;20379;-62
2022/07/06 08:59:56;;;;;;;1.05;0.40;;;;;;;22.53;36.38;102710.16;5006594;28;20065;-61
2022/07/06 09:02:24;;;;;;;0.63;0.38;;;;;;;22.53;36.50;102700.28;5006282;28;20138;-60
2022/07/06 09:04:50;;;;;;;0.75;0.40;;;;;;;22.44;36.83;102701.66;5006329;28;20109;-61
2022/07/06 09:07:16;;;;;;;0.68;0.22;;;;;;;22.54;37.55;102703.81;5004832;28;20041;-63
2022/07/06 09:09:45;;;;;;;1.60;0.30;;;;;;;22.54;37.55;102707.38;5007261;28;20441;-62
2022/07/06 09:12:13;;;;;;;1.70;0.30;;;;;;;22.67;37.94;102712.13;5005885;28;20022;-64
2022/07/06 09:14:38;;;;;;;2.10;0.43;;;;;;;22.69;36.77;102710.19;5005762;28;20417;-61
2022/07/06 09:17:06;;;;;;;0.85;0.30;;;;;;;22.82;36.18;102710.38;5006606;28;20033;-62
2022/07/06 09:19:33;;;;;;;0.77;0.40;;;;;;;22.94;35.60;102701.59;5006359;28;20032;-61
2022/07/06 09:21:59;;;;;;;0.98;0.40;;;;;;;22.49;37.05;102708.59;5006074;28;20503;-61
2022/07/06 09:24:26;;;;;;;0.47;0.47;;;;;;;22.92;36.77;102708.91;5007629;28;20515;-61
2022/07/06 09:26:54;;;;;;;1.88;0.45;;;;;;;23.27;36.07;102704.25;5006195;28;20113;-61
2022/07/06 09:29:26;;;;;;;2.55;0.50;;;;;;;23.05;35.44;102711.75;5003411;28;20052;-62
2022/07/06 09:32:03;;;;;;;1.45;0.40;;;;;;;23.20;36.15;102714.47;5005912;28;20492;-62
2022/07/06 09:34:41;;;;;;;1.35;0.40;;;;;;;23.42;34.68;102715.97;5004383;28;20025;-63
2022/07/06 09:37:07;;;;;;;2.88;0.57;;;;;;;22.93;36.32;102724.06;5004064;28;20366;-63
2022/07/06 09:39:32;;;;;;;1.73;0.55;;;;;;;23.25;36.81;102722.28;5005407;28;20176;-63
2022/07/06 09:41:59;;;;;;;2.05;0.55;;;;;;;23.34;35.36;102722.63;5006639;28;20034;-62
2022/07/06 09:44:28;;;;;;;0.52;0.30;;;;;;;23.31;34.99;102730.88;4996653;28;20026;-62
2022/07/06 09:47:02;;;;;;;4.60;0.40;;;;;;;23.28;35.04;102738.25;5005467;28;20064;-62
2022/07/06 09:49:28;;;;;;;1.25;0.50;;;;;;;23.21;35.42;102735.91;5005946;28;20041;-61
2022/07/06 09:51:55;;;;;;;0.85;0.45;;;;;;;22.97;35.78;102733.69;5006825;28;20380;-61
2022/07/06 09:54:20;;;;;;;1.70;0.60;;;;;;;22.87;35.42;102735.16;5007124;28;20029;-62
2022/07/06 09:56:50;;;;;;;0.80;0.40;;;;;;;23.03;35.48;102729.75;5006092;28;20370;-62
2022/07/06 09:59:16;;;;;;;2.75;0.43;;;;;;;22.89;35.15;102730.56;5006000;28;20087;-62
2022/07/06 10:01:42;;;;;;;1.02;0.57;;;;;;;22.96;34.71;102734.63;5006569;28;20475;-62
2022/07/06 10:04:08;;;;;;;4.82;0.60;;;;;;;22.65;36.99;102728.31;5007632;28;20084;-65
2022/07/06 10:06:35;;;;;;;1.13;0.52;;;;;;;22.96;35.22;102723.00;5017988;28;20022;-63
2022/07/06 10:09:00;;;;;;;2.97;0.73;;;;;;;22.81;35.79;102724.75;5025392;28;20541;-63
2022/07/06 10:11:28;;;;;;;1.83;0.40;;;;;;;23.19;34.65;102713.63;5008123;28;20060;-61
2022/07/06 10:13:56;;;;;;;2.80;0.77;;;;;;;23.11;35.61;102718.56;5005624;28;20018;-62
2022/07/06 10:16:23;;;;;;;0.40;0.40;;;;;;;23.12;35.69;102717.66;5013355;28;20480;-64
2022/07/06 10:18:50;;;;;;;3.83;0.60;;;;;;;23.39;36.30;102725.06;5025375;28;20036;-62
2022/07/06 10:21:17;;;;;;;3.08;0.70;;;;;;;23.03;36.46;102734.28;5015509;28;20064;-62
2022/07/06 10:23:43;;;;;;;1.95;0.80;;;;;;;22.97;36.87;102727.47;5004517;28;20029;-61
2022/07/06 10:26:09;;;;;;;2.40;0.63;;;;;;;22.59;36.74;102723.28;5004470;28;20030;-62
2022/07/06 10:28:35;;;;;;;1.02;0.38;;;;;;;22.51;37.52;102720.13;5004997;28;20397;-62
2022/07/06 10:31:00;;;;;;;1.98;0.70;;;;;;;22.46;37.31;102715.00;5004154;28;20029;-61
2022/07/06 10:33:26;;;;;;;2.72;0.60;;;;;;;22.54;37.55;102718.13;5003753;28;20117;-62
2022/07/06 10:35:51;;;;;;;4.57;0.68;;;;;;;22.66;37.39;102703.19;5003798;28;20026;-62
2022/07/06 10:38:17;;;;;;;1.75;0.68;;;;;;;22.61;38.08;102707.06;5004191;28;20045;-62
2022/07/06 10:43:42;;;;;;;1.65;0.73;;;;;;;22.43;37.57;102702.59;5001859;28;20059;-62
2022/07/06 10:46:11;;;;;;;1.00;0.40;;;;;;;22.67;37.32;102710.28;5005354;28;20020;-62
2022/07/06 10:48:38;;;;;;;1.65;0.60;;;;;;;22.54;36.82;102709.19;5005204;28;20025;-62
2022/07/06 10:51:04;;;;;;;1.52;0.60;;;;;;;22.63;38.69;102706.03;5005492;28;20026;-62
2022/07/06 10:53:38;;;;;;;2.72;0.90;;;;;;;22.84;36.41;102709.34;5002229;28;20061;-62
2022/07/06 10:56:08;;;;;;;4.63;1.17;;;;;;;23.44;35.95;102712.22;5005001;28;20500;-62
2022/07/06 10:58:40;;;;;;;8.48;1.08;;;;;;;23.78;34.78;102701.22;5006154;28;20030;-63
2022/07/06 11:01:06;;;;;;;3.20;1.20;;;;;;;23.99;33.80;102700.88;5005448;28;20029;-64
2022/07/06 11:03:33;;;;;;;1.20;0.80;;;;;;;24.02;34.08;102689.06;5000925;28;20058;-62
2022/07/06 11:06:00;;;;;;;2.30;0.73;;;;;;;24.09;33.03;102685.00;4992970;28;20021;-62
2022/07/06 11:08:44;;;;;;;1.25;0.75;;;;;;;24.07;33.25;102676.16;4997363;28;20025;-62
2022/07/06 11:11:17;;;;;;;1.35;0.80;;;;;;;23.84;34.06;102673.09;5005973;28;20029;-62
2022/07/06 11:13:44;;;;;;;1.67;0.82;;;;;;;23.60;34.86;102671.78;5003212;28;20590;-62
2022/07/06 11:16:11;;;;;;;2.13;0.70;;;;;;;23.44;34.93;102674.56;5004753;28;20018;-62
2022/07/06 11:18:40;;;;;;;3.75;1.02;;;;;;;23.64;34.59;102672.50;5009412;28;20053;-63
2022/07/06 11:21:22;;;;;;;3.03;1.00;;;;;;;23.94;35.08;102670.69;5004144;28;20018;-63
2022/07/06 11:23:50;;;;;;;0.85;0.63;;;;;;;24.04;34.07;102658.38;5006446;28;20084;-63
2022/07/06 11:26:16;;;;;;;2.42;0.70;;;;;;;24.11;34.31;102661.56;5006034;28;20022;-62